Vliegveldwaarnemingen Nederland - (AUTO) METAR

Luchtvaartmeteorologische informatie voor operationeel gebruik en vluchtvoorbereiding is beschikbaar op www.luchtvaartmeteo.nl.

ZCZC
SA242255 EHKD     DE KOOY/DE KOOY   NLD   1 m.
METAR EHKD 242255Z AUTO 18007KT 0300 R21/0100N FG OVC000 00/00 Q1030 RED=

ZCZC
SA242255 EHFD     F3-FB-1   NLD   50 m.
METAR EHFD 242255Z AUTO 20019KT 9999 NCD 07/03 Q1027=

ZCZC
SA242255 EHAM     AMSTERDAM/SCHIPHOL   NLD   -3 m.
METAR EHAM 242255Z 15006KT 120V180 2200 - DZ BR FEW001 SCT002 BKN003
01/01 Q1031 BECMG 3000 OVC004=

ZCZC
SA242255 EHVL     VLIELAND   NLD   10 m.
METAR EHVL 242255Z AUTO 18010KT 0500 -DZ VV000 00/00 Q1030 REFZDZ RED=

ZCZC
SA242255 EHJR     K13-A   NLD   37 m.
METAR EHJR 242255Z NIL=

ZCZC
SA242255 EHLW     LEEUWARDEN/LEEUWARDEN   NLD   1 m.
METAR EHLW 242255Z AUTO 18007KT 140V220 1200 R23/0750N BR OVC000
M00/M00 Q1031 RED=

ZCZC
SA242255 EHDL     ARNHEM/DEELEN   NLD   48 m.
METAR EHDL 242255Z AUTO VRB02KT 2600 BR OVC005 M00/M01 Q1031 YLO=

ZCZC
SA242255 EHGG     GRONINGEN/EELDE   NLD   5 m.
METAR EHGG 242255Z AUTO 18005KT 150V220 3300 BR OVC006 01/M00 Q1031=

ZCZC
SA242255 EHSC     LICHTEILAND GOEREE   NLD   22 m.
METAR EHSC 242255Z NIL=

ZCZC
SA242255 EHSA     EURO PLATFORM   NLD   19 m.
METAR EHSA 242255Z NIL=

ZCZC
SA242255 EHWO     WOENSDRECHT/WOENSDRECHT   NLD   19 m.
METAR EHWO 242255Z AUTO 10001KT 1200 BR BKN000 BKN002 OVC005 01/01
Q1030 RED=

ZCZC
SA242255 EHRD     ROTTERDAM/THE HAGUE AIRPORT   NLD   -5 m.
METAR EHRD 242255Z AUTO 16005KT 2600 BR BKN003 OVC005 01/01 Q1031
BECMG 3000 OVC005=

ZCZC
SA242255 EHGR     GILZE-RIJEN/GILZE-RIJEN   NLD   14 m.
METAR EHGR 242255Z AUTO 12004KT 090V160 3200 BR OVC004 00/M00 Q1031 YLO=

ZCZC
SA242255 EHEH     EINDHOVEN/EINDHOVEN   NLD   22 m.
METAR EHEH 242255Z AUTO 17003KT 110V180 3200 BR OVC007 00/M01 Q1031 YLO=

ZCZC
SA242255 EHVK     VOLKEL/VOLKEL   NLD   21 m.
METAR EHVK 242255Z AUTO 16004KT 080V170 2400 BR OVC005 M00/M01 Q1031 YLO=

ZCZC
SA242255 EHBK     MAASTRICHT/MAASTRICHT-AACHEN   NLD   114 m.
METAR EHBK 242255Z AUTO 05004KT 2300 BR OVC022 M02/M03 Q1030=

ZCZC
SA242255 EHFZ     F16-A   NLD   43 m.
METAR EHFZ 242255Z AUTO 18018KT 9999 FEW002 05/04 Q1028=

ZCZC
SA242255 EHKV     K14-FA-1C   NLD   41 m.
METAR EHKV 242255Z AUTO 18015KT 9999 FEW000 BKN001 BKN003 05/04
Q1029=

ZCZC
SA242255 EHMG     L9-FF-1   NLD   44 m.
METAR EHMG 242255Z AUTO 19015KT 0300 -RA VV000 01/01 Q1029 RERA REDZ=

ZCZC
SA242255 EHMA     AWG-1   NLD   40 m.
METAR EHMA 242255Z AUTO 20013KT 180V240 //// // OVC000 M00/M00 Q1030
RE//=

ZCZC
SA242255 EHDV     D15-FA-1   NLD   42 m.
METAR EHDV 242255Z AUTO 21017KT 170V250 7000 NCD 07/04 Q1027=

ZCZC
SA242255 EHAK     A12-CPP   NLD   48 m.
METAR EHAK 242255Z AUTO 19020KT 7000 NCD 07/04 Q1026=

ZCZC
SA242255 EHQE     HOORN-A   NLD   50 m.
METAR EHQE 242255Z AUTO 20010KT 0650 DZ VV000 02/02 Q1030=

ZCZC
SA242255 EHJA     J6-A   NLD   45 m.
METAR EHJA 242255Z AUTO 18014KT 6000 FEW007/// 06/05 Q1028=

ZCZC
SA242255 EHPG     P11-B   NLD   41 m.
METAR EHPG 242255Z AUTO 16013KT 150V220 0300 -DZ VV000 03/01 Q1029=

ZCZC
SA242255 EHHW     BUITENGAATS/BG-OHVS2      42 m.
METAR EHHW 242255Z AUTO 21010KT 170V240 3100 BR OVC000/// 01/01
Q1030=

ZCZC
SA242255 EHFS     VLISSINGEN AWS   NLD   8 m.
METAR EHFS 242255Z AUTO 16009KT 0200 -SG VV000 00/M00 Q1030 REFZRA=

25/01/2017 00.15 uur LT